Kangerlussuaq, Greenland
Current Conditions -  °F | °C
As of 4:50 AM on Saturday 25 Oct 2014 (Local Time) from BGSF Reporting Station
Ice Pellets Ice Pellets  
Wind Chill:   Ceiling: 6500
Heat Index: 18°   Visibility: 6mi
Dew Point: 14°   Wind: 9mph
Humidity: 86%   Direction: 70°ENE
Pressure: 29.77"   Gusts: NA
Location:  67°N, 50.69°W
Report Text: BGSF 250650Z AUTO 07008KT 9999NDV -IC BKN065/// M08/M10 Q1008
Loading
Personal Weather Stations






























Interactive Weather Map
Tropical Storm Tracking
New forecast layout! Learn more

10-Day Weather Forecast

Advertisements
Track Severe Weather on mobile